Time;durP1;ratioP1;P1;durP2;ratioP2;P2;SDS_P1;SDS_P2;PMS_P1;PMS_P2;Temp;Humidity;BMP_temperature;BMP_pressure;BME280_temperature;BME280_humidity;BME280_pressure;Samples;Min_cycle;Max_cycle;Signal;HPM_P1;HPM_P2
2021/10/24 00:01:01;;;;;;;0.70;0.70;;;1.10;99.90;;;;;;5029691;28;20213;-75
2021/10/24 00:03:26;;;;;;;0.65;0.65;;;1.00;99.90;;;;;;5029926;28;20202;-74
2021/10/24 00:05:52;;;;;;;0.80;0.80;;;1.00;99.90;;;;;;5029891;28;20225;-74
2021/10/24 00:08:19;;;;;;;0.73;0.73;;;0.90;99.90;;;;;;5029878;28;20359;-74
2021/10/24 00:10:45;;;;;;;0.70;0.70;;;0.90;99.90;;;;;;5028522;28;20205;-75
2021/10/24 00:13:10;;;;;;;0.70;0.70;;;0.90;99.90;;;;;;5028771;28;20198;-75
2021/10/24 00:15:39;;;;;;;1.02;1.02;;;0.80;99.90;;;;;;5029671;28;20205;-75
2021/10/24 00:18:05;;;;;;;0.68;0.68;;;0.70;99.90;;;;;;5029766;28;20291;-75
2021/10/24 00:20:34;;;;;;;0.85;0.85;;;0.80;99.90;;;;;;5029685;28;20344;-75
2021/10/24 00:23:00;;;;;;;0.50;0.50;;;0.80;99.90;;;;;;5029996;28;20267;-75
2021/10/24 00:25:26;;;;;;;0.60;0.60;;;0.80;99.90;;;;;;5030067;28;20615;-74
2021/10/24 00:27:57;;;;;;;0.60;0.60;;;0.80;99.90;;;;;;5029187;28;20210;-75
2021/10/24 00:30:23;;;;;;;1.17;1.08;;;0.80;99.90;;;;;;5046196;28;20202;-75
2021/10/24 00:32:49;;;;;;;0.70;0.70;;;0.80;99.90;;;;;;5030558;28;20202;-75
2021/10/24 00:35:14;;;;;;;0.80;0.80;;;0.80;99.90;;;;;;5028721;28;20229;-75
2021/10/24 00:37:40;;;;;;;0.82;0.82;;;0.70;99.90;;;;;;5031126;28;20214;-75
2021/10/24 00:40:07;;;;;;;0.70;0.70;;;0.70;99.90;;;;;;5030154;28;20639;-74
2021/10/24 00:42:32;;;;;;;0.60;0.60;;;0.70;99.90;;;;;;5029369;28;20213;-74
2021/10/24 00:44:58;;;;;;;0.60;0.60;;;0.70;99.90;;;;;;5029833;28;20297;-75
2021/10/24 00:47:30;;;;;;;0.70;0.70;;;0.60;99.90;;;;;;5029675;28;20216;-74
2021/10/24 00:49:56;;;;;;;0.80;0.80;;;0.60;99.90;;;;;;5028864;28;20218;-75
2021/10/24 00:52:21;;;;;;;0.60;0.60;;;0.60;99.90;;;;;;5030726;28;20281;-74
2021/10/24 00:54:48;;;;;;;0.60;0.60;;;0.60;99.90;;;;;;5030647;28;20268;-75
2021/10/24 00:57:16;;;;;;;0.60;0.60;;;0.50;99.90;;;;;;5029612;28;20198;-75
2021/10/24 00:59:45;;;;;;;0.68;0.68;;;0.60;99.90;;;;;;5029370;28;20202;-75
2021/10/24 01:02:11;;;;;;;0.60;0.60;;;0.60;99.90;;;;;;5029338;28;20194;-75
2021/10/24 01:04:37;;;;;;;0.65;0.65;;;0.50;99.90;;;;;;5029302;28;20226;-76
2021/10/24 01:07:03;;;;;;;1.27;1.17;;;0.60;99.90;;;;;;5028939;28;20226;-75
2021/10/24 01:09:34;;;;;;;0.70;0.70;;;0.50;99.90;;;;;;5034413;28;20198;-74
2021/10/24 01:12:00;;;;;;;0.70;0.70;;;0.60;99.90;;;;;;5033299;28;20194;-75
2021/10/24 01:14:26;;;;;;;0.70;0.70;;;0.60;99.90;;;;;;5032040;28;20213;-75
2021/10/24 01:16:52;;;;;;;0.70;0.70;;;0.60;99.90;;;;;;5034310;28;20229;-75
2021/10/24 01:19:22;;;;;;;0.65;0.65;;;0.70;99.90;;;;;;5033053;28;20272;-75
2021/10/24 01:21:48;;;;;;;0.60;0.60;;;0.80;99.90;;;;;;5033077;28;20198;-75
2021/10/24 01:24:14;;;;;;;0.70;0.70;;;0.90;99.90;;;;;;5034404;28;20198;-75
2021/10/24 01:26:41;;;;;;;0.73;0.73;;;1.10;99.90;;;;;;5033024;28;20586;-75
2021/10/24 01:29:09;;;;;;;0.70;0.70;;;1.10;99.90;;;;;;5034493;28;20279;-75
2021/10/24 01:31:36;;;;;;;0.50;0.50;;;1.20;99.90;;;;;;5031554;28;20205;-75
2021/10/24 01:34:02;;;;;;;0.50;0.50;;;1.40;99.90;;;;;;5034579;28;20554;-75
2021/10/24 01:36:28;;;;;;;0.55;0.55;;;1.50;99.90;;;;;;5033146;28;20206;-75
2021/10/24 01:38:53;;;;;;;0.77;0.77;;;1.50;99.90;;;;;;5034144;28;20210;-75
2021/10/24 01:41:23;;;;;;;1.10;1.00;;;1.70;99.90;;;;;;5032514;28;20686;-75
2021/10/24 01:43:49;;;;;;;0.70;0.70;;;1.80;99.90;;;;;;5034138;28;20691;-75
2021/10/24 01:46:15;;;;;;;0.63;0.63;;;1.90;99.90;;;;;;5032613;28;20644;-75
2021/10/24 01:48:43;;;;;;;0.68;0.68;;;1.90;99.90;;;;;;5033811;28;20198;-75
2021/10/24 01:51:09;;;;;;;0.70;0.70;;;2.00;99.90;;;;;;5033903;28;20206;-75
2021/10/24 01:53:38;;;;;;;0.60;0.60;;;2.10;99.90;;;;;;5031951;28;20213;-75
2021/10/24 01:56:05;;;;;;;5.53;2.78;;;2.20;99.90;;;;;;5031388;28;20206;-75
2021/10/24 01:58:31;;;;;;;0.70;0.70;;;2.30;99.90;;;;;;5033546;28;20235;-75
2021/10/24 02:00:56;;;;;;;0.60;0.60;;;2.30;99.90;;;;;;5022944;28;20238;-74
2021/10/24 02:03:22;;;;;;;0.50;0.50;;;2.40;99.90;;;;;;5022224;28;20543;-74
2021/10/24 02:05:48;;;;;;;0.70;0.70;;;2.40;99.90;;;;;;5032309;28;20225;-74
2021/10/24 02:08:14;;;;;;;0.68;0.68;;;2.40;99.90;;;;;;5031266;28;20221;-74
2021/10/24 02:10:41;;;;;;;0.70;0.70;;;2.50;99.90;;;;;;5032503;28;20198;-74
2021/10/24 02:13:08;;;;;;;0.57;0.57;;;2.60;99.90;;;;;;5032211;28;20281;-74
2021/10/24 02:15:35;;;;;;;0.70;0.70;;;2.60;99.90;;;;;;5030926;28;20308;-74
2021/10/24 02:18:02;;;;;;;0.55;0.55;;;2.60;99.90;;;;;;5033678;28;20685;-74
2021/10/24 02:20:29;;;;;;;0.70;0.70;;;2.70;99.90;;;;;;5029666;28;20586;-74
2021/10/24 02:22:55;;;;;;;0.98;0.98;;;2.80;99.90;;;;;;5032343;28;20220;-74
2021/10/24 02:25:22;;;;;;;0.60;0.60;;;2.90;99.90;;;;;;5033266;28;20226;-74
2021/10/24 02:27:48;;;;;;;0.70;0.70;;;3.00;99.90;;;;;;5032163;28;20580;-75
2021/10/24 02:30:14;;;;;;;0.85;0.85;;;3.10;99.90;;;;;;5032106;28;20202;-75
2021/10/24 02:32:41;;;;;;;0.70;0.70;;;3.20;99.90;;;;;;5048356;28;20256;-74
2021/10/24 02:35:08;;;;;;;0.80;0.80;;;3.20;99.90;;;;;;5032380;28;20206;-74
2021/10/24 02:37:33;;;;;;;0.80;0.80;;;3.40;99.90;;;;;;5031801;28;20264;-75
2021/10/24 02:39:59;;;;;;;0.60;0.60;;;3.40;99.90;;;;;;5032042;28;20677;-75
2021/10/24 02:42:25;;;;;;;2.25;2.05;;;3.40;99.90;;;;;;5031447;28;20209;-75
2021/10/24 02:44:50;;;;;;;0.60;0.60;;;3.40;99.90;;;;;;5032090;28;20209;-74
2021/10/24 02:47:20;;;;;;;0.60;0.60;;;3.50;99.90;;;;;;5031692;28;20285;-75
2021/10/24 02:49:47;;;;;;;0.60;0.60;;;3.50;99.90;;;;;;5032716;28;20234;-75
2021/10/24 02:52:13;;;;;;;0.80;0.80;;;3.60;99.90;;;;;;5033663;28;20202;-74
2021/10/24 02:54:39;;;;;;;0.80;0.80;;;3.60;99.90;;;;;;5032463;28;20271;-75
2021/10/24 02:57:05;;;;;;;0.52;0.52;;;3.60;99.90;;;;;;5030479;28;20206;-75
2021/10/24 02:59:31;;;;;;;0.82;0.82;;;3.60;99.90;;;;;;5031437;28;20276;-75
2021/10/24 03:01:57;;;;;;;0.60;0.60;;;3.60;99.90;;;;;;5029634;28;20235;-75
2021/10/24 03:04:23;;;;;;;0.70;0.70;;;3.70;99.90;;;;;;5032080;28;20309;-75
2021/10/24 03:06:49;;;;;;;6.07;1.30;;;3.60;99.90;;;;;;5032346;28;20279;-75
2021/10/24 03:09:15;;;;;;;0.60;0.60;;;3.60;99.90;;;;;;5031121;28;20213;-74
2021/10/24 03:11:41;;;;;;;0.70;0.70;;;3.60;99.90;;;;;;5029749;28;20206;-75
2021/10/24 03:14:07;;;;;;;0.60;0.60;;;3.60;99.90;;;;;;5029766;28;20633;-75
2021/10/24 03:16:34;;;;;;;0.60;0.60;;;3.60;99.90;;;;;;5030797;28;20288;-75
2021/10/24 03:19:00;;;;;;;0.80;0.80;;;3.60;99.90;;;;;;5032290;28;20190;-74
2021/10/24 03:21:26;;;;;;;0.63;0.63;;;3.60;99.90;;;;;;5029632;28;20337;-75
2021/10/24 03:23:51;;;;;;;0.60;0.60;;;3.60;99.90;;;;;;5032113;28;20289;-75
2021/10/24 03:26:18;;;;;;;1.35;1.25;;;3.60;99.90;;;;;;5029406;28;20210;-75
2021/10/24 03:28:44;;;;;;;0.68;0.68;;;3.60;99.90;;;;;;5031832;28;20281;-75
2021/10/24 03:31:09;;;;;;;0.70;0.70;;;3.60;99.90;;;;;;5029309;28;20337;-75
2021/10/24 03:33:35;;;;;;;1.02;1.02;;;3.60;99.90;;;;;;5030555;28;20227;-75
2021/10/24 03:36:01;;;;;;;0.80;0.80;;;3.60;99.90;;;;;;5029382;28;20194;-75
2021/10/24 03:38:26;;;;;;;0.55;0.55;;;3.60;99.90;;;;;;5031962;28;20669;-75
2021/10/24 03:40:52;;;;;;;0.57;0.57;;;3.60;99.90;;;;;;5032142;28;20585;-75
2021/10/24 03:43:18;;;;;;;0.80;0.80;;;3.70;99.90;;;;;;5029234;28;20210;-75
2021/10/24 03:45:43;;;;;;;2.78;1.75;;;3.70;99.90;;;;;;5029314;28;20323;-76
2021/10/24 03:48:09;;;;;;;0.70;0.70;;;3.80;99.90;;;;;;5031749;28;20210;-76
2021/10/24 03:50:35;;;;;;;0.85;0.85;;;3.80;99.90;;;;;;5018158;28;20238;-75
2021/10/24 03:53:00;;;;;;;0.77;0.77;;;3.90;99.90;;;;;;5024260;28;20207;-75
2021/10/24 03:55:26;;;;;;;0.68;0.68;;;3.90;99.90;;;;;;5043849;28;20206;-75
2021/10/24 03:57:52;;;;;;;0.50;0.50;;;3.90;99.90;;;;;;5046716;28;20296;-75
2021/10/24 04:00:18;;;;;;;0.85;0.85;;;4.00;99.90;;;;;;5030220;28;20234;-75
2021/10/24 04:02:57;;;;;;;1.05;1.00;;;4.10;99.90;;;;;;5029703;28;20202;-75
2021/10/24 04:05:25;;;;;;;0.70;0.70;;;4.20;99.90;;;;;;5029791;28;20275;-75
2021/10/24 04:07:52;;;;;;;0.60;0.60;;;4.20;99.90;;;;;;5031382;28;20576;-75
2021/10/24 04:10:20;;;;;;;0.70;0.70;;;4.20;99.90;;;;;;5029969;28;20719;-75
2021/10/24 04:12:46;;;;;;;0.50;0.50;;;4.20;99.90;;;;;;5030411;28;20202;-76
2021/10/24 04:15:12;;;;;;;4.57;1.40;;;4.20;99.90;;;;;;5030122;28;20360;-75
2021/10/24 04:17:38;;;;;;;0.70;0.70;;;4.30;99.90;;;;;;5031234;28;20531;-76
2021/10/24 04:20:07;;;;;;;0.60;0.60;;;4.30;99.90;;;;;;5031368;28;20735;-76
2021/10/24 04:22:34;;;;;;;0.73;0.73;;;4.20;99.90;;;;;;5028431;28;20748;-75
2021/10/24 04:25:00;;;;;;;0.60;0.60;;;4.30;99.90;;;;;;5030198;28;20185;-75
2021/10/24 04:27:26;;;;;;;0.80;0.80;;;4.40;99.90;;;;;;5028672;28;20299;-76
2021/10/24 04:29:52;;;;;;;0.57;0.57;;;4.40;99.90;;;;;;5029818;28;20277;-75
2021/10/24 04:32:17;;;;;;;0.60;0.60;;;4.40;99.90;;;;;;5027468;28;20198;-75
2021/10/24 04:34:43;;;;;;;0.57;0.57;;;4.30;99.90;;;;;;5029826;28;20657;-75
2021/10/24 04:37:09;;;;;;;0.70;0.70;;;4.40;99.90;;;;;;5030023;28;20209;-75
2021/10/24 04:39:35;;;;;;;0.93;0.90;;;4.40;99.90;;;;;;5030246;28;20289;-75
2021/10/24 04:42:00;;;;;;;0.60;0.60;;;4.60;99.90;;;;;;5030500;28;20340;-75
2021/10/24 04:44:26;;;;;;;0.65;0.65;;;4.70;99.90;;;;;;5035103;28;20202;-75
2021/10/24 04:46:52;;;;;;;0.60;0.60;;;4.70;99.90;;;;;;5034973;28;20221;-75
2021/10/24 04:49:19;;;;;;;3.90;2.47;;;4.70;99.90;;;;;;5033018;28;20582;-75
2021/10/24 04:51:44;;;;;;;1.35;1.13;;;4.90;99.90;;;;;;5033645;28;20212;-75
2021/10/24 04:54:10;;;;;;;0.60;0.60;;;5.00;99.90;;;;;;5030176;28;20202;-76
2021/10/24 04:56:36;;;;;;;0.80;0.80;;;5.20;99.90;;;;;;5028842;28;20293;-75
2021/10/24 04:59:02;;;;;;;0.65;0.65;;;5.30;99.90;;;;;;5033578;28;20565;-75
2021/10/24 05:01:27;;;;;;;1.02;0.98;;;5.30;99.90;;;;;;5034336;28;20209;-75
2021/10/24 05:03:53;;;;;;;0.80;0.80;;;5.40;99.90;;;;;;5031946;28;20635;-75
2021/10/24 05:06:19;;;;;;;0.80;0.80;;;5.40;99.90;;;;;;5033249;28;20704;-76
2021/10/24 05:08:44;;;;;;;0.70;0.70;;;5.40;99.90;;;;;;5033940;28;20627;-75
2021/10/24 05:11:10;;;;;;;0.70;0.70;;;5.50;99.90;;;;;;5033319;28;20252;-75
2021/10/24 05:13:36;;;;;;;0.70;0.70;;;5.40;99.90;;;;;;5033160;28;20555;-75
2021/10/24 05:16:01;;;;;;;0.70;0.70;;;5.50;99.90;;;;;;5033272;28;20206;-75
2021/10/24 05:18:27;;;;;;;0.60;0.60;;;5.50;99.90;;;;;;5034452;28;20280;-75
2021/10/24 05:20:53;;;;;;;0.60;0.60;;;5.60;99.90;;;;;;5033294;28;20537;-75
2021/10/24 05:23:19;;;;;;;0.50;0.50;;;5.60;99.90;;;;;;5033213;28;20669;-75
2021/10/24 05:25:44;;;;;;;0.60;0.60;;;5.60;99.90;;;;;;5047829;28;20206;-75
2021/10/24 05:28:10;;;;;;;0.60;0.60;;;5.60;99.90;;;;;;5048647;28;20214;-75
2021/10/24 05:30:35;;;;;;;1.73;1.08;;;5.60;99.90;;;;;;5031721;28;20576;-75
2021/10/24 05:33:01;;;;;;;0.68;0.68;;;5.60;99.90;;;;;;5033108;28;20708;-75
2021/10/24 05:35:27;;;;;;;0.60;0.60;;;5.60;99.90;;;;;;5034142;28;20571;-75
2021/10/24 05:37:53;;;;;;;0.70;0.70;;;5.50;99.90;;;;;;5031480;28;20206;-75
2021/10/24 05:40:19;;;;;;;0.70;0.70;;;5.60;99.90;;;;;;5031495;28;20213;-75
2021/10/24 05:42:44;;;;;;;0.70;0.70;;;5.60;99.90;;;;;;5032992;28;20210;-74
2021/10/24 05:45:10;;;;;;;0.68;0.68;;;5.60;99.90;;;;;;5033241;28;20212;-75
2021/10/24 05:47:36;;;;;;;0.70;0.70;;;5.70;99.90;;;;;;5032717;28;20234;-75
2021/10/24 05:50:03;;;;;;;0.75;0.75;;;5.70;99.90;;;;;;5032881;28;20202;-75
2021/10/24 05:52:29;;;;;;;6.63;1.88;;;5.60;99.90;;;;;;5032414;28;20206;-75
2021/10/24 05:54:55;;;;;;;1.00;1.00;;;5.70;99.90;;;;;;5033668;28;20229;-75
2021/10/24 05:57:20;;;;;;;3.13;1.33;;;5.70;99.90;;;;;;5032552;28;20605;-74
2021/10/24 05:59:47;;;;;;;0.50;0.50;;;5.70;99.90;;;;;;5033873;28;20290;-75
2021/10/24 06:02:13;;;;;;;1.13;1.02;;;5.70;99.90;;;;;;5029670;28;20221;-75
2021/10/24 06:04:38;;;;;;;0.68;0.68;;;5.80;99.90;;;;;;5030835;28;20325;-75
2021/10/24 06:07:05;;;;;;;0.70;0.70;;;5.90;99.90;;;;;;5032499;28;20257;-75
2021/10/24 06:09:42;;;;;;;0.52;0.52;;;5.90;99.90;;;;;;5032763;28;20298;-75
2021/10/24 06:12:16;;;;;;;0.70;0.70;;;5.90;99.90;;;;;;5031958;28;20248;-75
2021/10/24 06:14:42;;;;;;;1.23;1.13;;;5.90;99.90;;;;;;5015058;28;20201;-76
2021/10/24 06:17:08;;;;;;;0.70;0.70;;;5.90;99.90;;;;;;5032377;28;20199;-75
2021/10/24 06:19:37;;;;;;;0.60;0.60;;;6.10;99.90;;;;;;5032023;28;20345;-75
2021/10/24 06:22:07;;;;;;;0.70;0.70;;;6.10;99.90;;;;;;5033802;28;20209;-75
2021/10/24 06:24:33;;;;;;;0.65;0.65;;;6.10;99.90;;;;;;5032024;28;20229;-75
2021/10/24 06:26:58;;;;;;;0.70;0.70;;;6.20;99.90;;;;;;5033661;28;20210;-74
2021/10/24 06:29:24;;;;;;;0.60;0.60;;;6.30;99.90;;;;;;5032035;28;20281;-76
2021/10/24 06:31:50;;;;;;;0.70;0.70;;;6.30;99.90;;;;;;5031016;28;20281;-76
2021/10/24 06:34:18;;;;;;;0.70;0.70;;;6.30;99.90;;;;;;5033154;28;20195;-75
2021/10/24 06:36:44;;;;;;;0.70;0.70;;;6.40;99.90;;;;;;5033121;28;20263;-75
2021/10/24 06:39:10;;;;;;;0.80;0.80;;;6.40;99.90;;;;;;5031938;28;20281;-75
2021/10/24 06:41:38;;;;;;;0.65;0.65;;;6.50;99.90;;;;;;5031520;28;20341;-75
2021/10/24 06:44:04;;;;;;;3.33;1.33;;;6.60;99.90;;;;;;5030392;28;20195;-75
2021/10/24 06:46:30;;;;;;;0.70;0.70;;;6.60;99.90;;;;;;5031452;28;20300;-75
2021/10/24 06:48:58;;;;;;;0.60;0.60;;;6.70;99.90;;;;;;5031931;28;20209;-75
2021/10/24 06:51:23;;;;;;;0.57;0.57;;;6.80;99.90;;;;;;5031401;28;20206;-75
2021/10/24 06:53:52;;;;;;;0.63;0.63;;;6.90;99.90;;;;;;5030048;28;20684;-75
2021/10/24 06:56:18;;;;;;;0.60;0.60;;;7.00;99.90;;;;;;5040581;22;20625;-85
2021/10/24 06:58:43;;;;;;;0.68;0.68;;;7.10;99.90;;;;;;5048685;28;20197;-85
2021/10/24 07:01:09;;;;;;;0.70;0.70;;;7.10;99.90;;;;;;5051668;28;20200;-85
2021/10/24 07:03:35;;;;;;;0.80;0.80;;;7.20;99.90;;;;;;5050506;28;20201;-85
2021/10/24 07:06:00;;;;;;;0.60;0.60;;;7.30;99.90;;;;;;5052282;28;20200;-86
2021/10/24 07:08:26;;;;;;;0.70;0.70;;;7.30;99.90;;;;;;5049964;28;20260;-86
2021/10/24 07:10:52;;;;;;;1.17;1.08;;;7.40;99.90;;;;;;5050335;28;20201;-86
2021/10/24 07:13:17;;;;;;;0.60;0.60;;;7.50;99.90;;;;;;5050412;28;20280;-86
2021/10/24 07:15:45;;;;;;;0.70;0.70;;;7.50;99.90;;;;;;5051146;28;20205;-86
2021/10/24 07:18:11;;;;;;;0.60;0.60;;;7.50;99.90;;;;;;5051522;28;20209;-85
2021/10/24 07:20:37;;;;;;;0.80;0.80;;;7.60;99.90;;;;;;5049724;28;20295;-85
2021/10/24 07:23:02;;;;;;;0.63;0.63;;;7.70;99.90;;;;;;5049875;28;20694;-85
2021/10/24 07:25:28;;;;;;;0.60;0.60;;;7.80;99.90;;;;;;5049676;28;20205;-85
2021/10/24 07:27:54;;;;;;;0.60;0.60;;;7.90;99.90;;;;;;5049609;28;20292;-86
2021/10/24 07:30:21;;;;;;;0.60;0.60;;;8.00;99.90;;;;;;5049739;28;20696;-86
2021/10/24 07:32:47;;;;;;;1.05;1.00;;;8.00;99.90;;;;;;5049716;28;20205;-86
2021/10/24 07:35:13;;;;;;;0.57;0.57;;;8.00;99.90;;;;;;5050998;28;20325;-86
2021/10/24 07:37:39;;;;;;;0.60;0.60;;;8.00;99.90;;;;;;5050625;28;21339;-86
2021/10/24 07:40:07;;;;;;;0.70;0.70;;;8.00;99.90;;;;;;5049402;28;20202;-85
2021/10/24 07:42:32;;;;;;;0.60;0.60;;;8.00;99.90;;;;;;5050591;28;20244;-85
2021/10/24 07:44:58;;;;;;;0.75;0.75;;;8.00;99.90;;;;;;5050209;28;20201;-86
2021/10/24 07:47:25;;;;;;;0.95;0.95;;;8.00;99.90;;;;;;5050460;28;20223;-86
2021/10/24 07:49:51;;;;;;;0.70;0.70;;;8.00;99.90;;;;;;5050773;28;20347;-85
2021/10/24 07:52:18;;;;;;;0.60;0.60;;;8.00;99.90;;;;;;5049388;28;21133;-84
2021/10/24 07:54:45;;;;;;;0.60;0.60;;;8.00;99.90;;;;;;5049210;28;20205;-85
2021/10/24 07:57:11;;;;;;;0.90;0.90;;;8.00;99.90;;;;;;5050263;28;20229;-84
2021/10/24 07:59:36;;;;;;;3.90;1.35;;;8.10;99.90;;;;;;5049075;28;20212;-87
2021/10/24 08:02:02;;;;;;;0.60;0.60;;;8.10;99.90;;;;;;5050560;28;20221;-86
2021/10/24 08:04:33;;;;;;;0.70;0.70;;;8.20;99.90;;;;;;5050457;28;20232;-85
2021/10/24 08:07:00;;;;;;;0.80;0.80;;;8.20;99.90;;;;;;5050675;28;20237;-85
2021/10/24 08:09:26;;;;;;;0.50;0.50;;;8.30;99.90;;;;;;5049191;28;20209;-85
2021/10/24 08:11:51;;;;;;;0.82;0.68;;;8.30;99.90;;;;;;5050071;28;20213;-88
2021/10/24 08:14:17;;;;;;;0.82;0.80;;;8.40;99.90;;;;;;5050185;28;20201;-84
2021/10/24 08:16:46;;;;;;;13.85;2.60;;;8.40;99.90;;;;;;5049603;28;20232;-86
2021/10/24 08:19:16;;;;;;;1.08;1.08;;;8.40;99.90;;;;;;5049162;28;20324;-87
2021/10/24 08:21:50;;;;;;;0.65;0.65;;;8.50;99.90;;;;;;5050159;28;20207;-86
2021/10/24 08:24:16;;;;;;;0.63;0.63;;;8.50;99.90;;;;;;5049162;28;20208;-86
2021/10/24 08:26:42;;;;;;;0.65;0.65;;;8.50;99.90;;;;;;5050133;28;20241;-87
2021/10/24 08:29:08;;;;;;;0.60;0.60;;;8.50;99.90;;;;;;5050258;28;20224;-86
2021/10/24 08:31:34;;;;;;;0.75;0.75;;;8.50;99.90;;;;;;5048767;28;20201;-86
2021/10/24 08:34:01;;;;;;;0.70;0.70;;;8.50;99.90;;;;;;5050507;28;20275;-86
2021/10/24 08:36:28;;;;;;;0.70;0.70;;;8.50;99.90;;;;;;5049992;28;20206;-86
2021/10/24 08:38:58;;;;;;;0.50;0.50;;;8.50;99.90;;;;;;5050458;28;20259;-87
2021/10/24 08:41:29;;;;;;;0.70;0.70;;;8.50;99.90;;;;;;5054661;28;20201;-85
2021/10/24 08:44:00;;;;;;;0.63;0.63;;;8.50;99.90;;;;;;5061629;28;20204;-86
2021/10/24 08:46:26;;;;;;;0.75;0.75;;;8.50;99.90;;;;;;5049671;28;20247;-85
2021/10/24 08:48:53;;;;;;;5.15;1.35;;;8.60;99.90;;;;;;5050221;28;20280;-86
2021/10/24 08:51:25;;;;;;;0.70;0.70;;;8.60;99.90;;;;;;5050231;28;20677;-85
2021/10/24 08:53:51;;;;;;;0.63;0.63;;;8.50;99.90;;;;;;5048608;28;20611;-86
2021/10/24 08:56:24;;;;;;;2.47;0.93;;;8.60;99.90;;;;;;5049751;28;20190;-86
2021/10/24 08:58:51;;;;;;;0.70;0.70;;;8.60;99.90;;;;;;5049928;28;20669;-87
2021/10/24 09:01:17;;;;;;;0.80;0.80;;;8.60;99.90;;;;;;5049886;28;20197;-86
2021/10/24 09:04:12;;;;;;;1.42;1.00;;;8.60;99.90;;;;;;5049724;28;20289;-85
2021/10/24 09:06:44;;;;;;;0.60;0.60;;;8.70;99.90;;;;;;5049547;28;20539;-85
2021/10/24 09:09:18;;;;;;;0.60;0.60;;;8.70;99.90;;;;;;5049692;28;20259;-85
2021/10/24 09:11:59;;;;;;;0.60;0.60;;;8.80;99.90;;;;;;5049652;28;20266;-84
2021/10/24 09:14:41;;;;;;;1.08;1.08;;;8.80;99.90;;;;;;5048274;28;20205;-86
2021/10/24 09:17:14;;;;;;;0.65;0.65;;;8.80;99.90;;;;;;5049686;28;20676;-85
2021/10/24 09:19:43;;;;;;;0.70;0.70;;;8.80;99.90;;;;;;5048134;28;20683;-86
2021/10/24 09:22:16;;;;;;;1.38;1.27;;;8.90;99.90;;;;;;5048742;28;20272;-85
2021/10/24 09:25:03;;;;;;;0.90;0.90;;;8.90;99.90;;;;;;5049848;28;20209;-86
2021/10/24 09:27:39;;;;;;;0.70;0.70;;;9.00;99.90;;;;;;5053209;28;20716;-86
2021/10/24 09:30:13;;;;;;;0.70;0.70;;;9.00;99.90;;;;;;5066119;28;20288;-87
2021/10/24 09:32:46;;;;;;;0.70;0.70;;;9.10;99.90;;;;;;5064401;28;20208;-87
2021/10/24 09:35:12;;;;;;;0.80;0.80;;;9.20;99.90;;;;;;5054603;28;20563;-87
2021/10/24 09:37:44;;;;;;;0.65;0.65;;;9.30;99.90;;;;;;5053744;28;20205;-85
2021/10/24 09:40:10;;;;;;;0.60;0.60;;;9.40;99.90;;;;;;5053181;28;20212;-87
2021/10/24 09:42:36;;;;;;;0.70;0.70;;;9.50;99.90;;;;;;5054263;28;20237;-87
2021/10/24 09:45:06;;;;;;;1.05;0.90;;;9.50;99.90;;;;;;5054348;28;20232;-86
2021/10/24 09:47:46;;;;;;;0.80;0.80;;;9.60;99.90;;;;;;5053198;28;20236;-87
2021/10/24 09:50:30;;;;;;;0.57;0.57;;;9.60;99.90;;;;;;5051818;28;20206;-87
2021/10/24 09:53:20;;;;;;;0.70;0.70;;;9.70;99.90;;;;;;5051575;28;20232;-87
2021/10/24 09:56:01;;;;;;;1.95;1.00;;;9.70;99.90;;;;;;5051740;28;20683;-87
2021/10/24 09:58:31;;;;;;;0.60;0.60;;;9.90;99.90;;;;;;5051543;28;20233;-85
2021/10/24 10:00:57;;;;;;;0.70;0.70;;;10.00;99.90;;;;;;5053180;28;20201;-85
2021/10/24 10:03:27;;;;;;;6.35;1.27;;;10.00;99.90;;;;;;5051362;28;20213;-87
2021/10/24 10:05:57;;;;;;;1.08;1.08;;;10.00;99.90;;;;;;5051558;28;20209;-88
2021/10/24 10:08:23;;;;;;;1.10;1.00;;;9.90;99.90;;;;;;5051339;28;20735;-85
2021/10/24 10:10:58;;;;;;;6.70;1.67;;;9.90;99.90;;;;;;5051389;28;20697;-87
2021/10/24 10:13:26;;;;;;;1.33;1.17;;;9.90;99.90;;;;;;5053060;28;20687;-87
2021/10/24 10:15:52;;;;;;;1.00;1.00;;;10.00;99.90;;;;;;5052556;28;20355;-87
2021/10/24 10:18:20;;;;;;;0.90;0.90;;;10.00;99.90;;;;;;5052595;28;20209;-87
2021/10/24 10:20:53;;;;;;;0.60;0.60;;;10.00;99.90;;;;;;5052707;28;20220;-88
2021/10/24 10:23:36;;;;;;;1.95;1.45;;;10.00;99.90;;;;;;5052563;28;20197;-87
2021/10/24 10:26:36;;;;;;;3.13;1.73;;;10.10;99.90;;;;;;5051225;28;20205;-88
2021/10/24 10:29:08;;;;;;;3.65;1.70;;;10.20;99.90;;;;;;5052504;28;20575;-87
2021/10/24 10:31:34;;;;;;;0.75;0.70;;;10.10;99.90;;;;;;5052075;28;20285;-87
2021/10/24 10:34:03;;;;;;;0.77;0.77;;;10.20;99.90;;;;;;5050917;28;20197;-87
2021/10/24 10:36:44;;;;;;;4.90;1.40;;;10.10;99.90;;;;;;5050783;28;20224;-87
2021/10/24 10:39:31;;;;;;;0.55;0.55;;;10.10;99.90;;;;;;5052186;28;20205;-88
2021/10/24 10:41:58;;;;;;;0.60;0.60;;;10.10;99.90;;;;;;5050736;28;20231;-89
2021/10/24 10:44:24;;;;;;;0.68;0.68;;;10.00;99.90;;;;;;5051031;28;20217;-89
2021/10/24 10:46:50;;;;;;;0.60;0.60;;;10.00;99.90;;;;;;5052198;28;20206;-90
2021/10/24 10:49:26;;;;;;;0.90;0.90;;;9.90;99.90;;;;;;5052531;28;20676;-89
2021/10/24 10:51:56;;;;;;;1.05;1.00;;;9.80;99.90;;;;;;5052128;28;20214;-89
2021/10/24 10:54:59;;;;;;;0.60;0.60;;;9.80;99.90;;;;;;5052155;28;20282;-88
2021/10/24 10:57:29;;;;;;;0.70;0.70;;;9.70;99.90;;;;;;5050533;28;20240;-89
2021/10/24 10:59:55;;;;;;;0.60;0.60;;;9.60;99.90;;;;;;5052325;28;20216;-88
2021/10/24 11:02:23;;;;;;;0.45;0.45;;;9.70;99.90;;;;;;5051727;28;20209;-88
2021/10/24 11:04:52;;;;;;;0.70;0.70;;;9.60;99.90;;;;;;5067258;28;20649;-89
2021/10/24 11:07:38;;;;;;;0.80;0.80;;;9.60;99.90;;;;;;5052536;28;20237;-89
2021/10/24 11:10:06;;;;;;;0.70;0.70;;;9.50;99.90;;;;;;5052074;28;20205;-88
2021/10/24 11:12:43;;;;;;;0.60;0.60;;;9.40;99.90;;;;;;5051664;28;20258;-87
2021/10/24 11:15:18;;;;;;;0.70;0.70;;;9.40;99.90;;;;;;5050441;28;20236;-88
2021/10/24 11:17:48;;;;;;;0.60;0.60;;;9.40;99.90;;;;;;5050391;28;20202;-87
2021/10/24 11:20:23;;;;;;;0.60;0.60;;;9.40;99.90;;;;;;5065685;28;20514;-89
2021/10/24 11:22:58;;;;;;;0.70;0.70;;;9.40;99.90;;;;;;5052639;28;20219;-89
2021/10/24 11:25:37;;;;;;;0.63;0.63;;;9.50;99.90;;;;;;5051571;28;20259;-88
2021/10/24 11:28:15;;;;;;;0.70;0.70;;;9.50;99.90;;;;;;5051251;28;20624;-88
2021/10/24 11:30:45;;;;;;;0.70;0.70;;;9.60;99.90;;;;;;5066166;28;20201;-89
2021/10/24 11:33:11;;;;;;;0.60;0.60;;;9.50;99.90;;;;;;5051468;28;20201;-88
2021/10/24 11:35:39;;;;;;;0.60;0.60;;;9.50;99.90;;;;;;5050811;28;20205;-88
2021/10/24 11:38:08;;;;;;;0.60;0.60;;;9.50;99.90;;;;;;5050004;28;20582;-88
2021/10/24 11:40:40;;;;;;;0.98;0.93;;;9.50;99.90;;;;;;5049817;28;20205;-88
2021/10/24 11:43:16;;;;;;;0.68;0.68;;;9.50;99.90;;;;;;5050242;28;20205;-89
2021/10/24 11:45:57;;;;;;;0.60;0.60;;;9.50;99.90;;;;;;5050975;28;20244;-89
2021/10/24 11:48:24;;;;;;;2.92;1.30;;;9.50;99.90;;;;;;5051001;28;20228;-88
2021/10/24 11:50:56;;;;;;;39.13;1.52;;;9.50;99.90;;;;;;5049601;28;20231;-88
2021/10/24 11:53:32;;;;;;;0.60;0.60;;;9.60;99.90;;;;;;5050537;28;20206;-88
2021/10/24 11:56:12;;;;;;;0.70;0.70;;;9.60;99.90;;;;;;5046668;28;20213;-87
2021/10/24 12:01:26;;;;;;;0.80;0.80;;;9.70;99.90;;;;;;5068559;28;20584;-88
2021/10/24 12:04:09;;;;;;;1.80;1.63;;;9.80;99.90;;;;;;5049527;28;20664;-88
2021/10/24 12:07:01;;;;;;;1.63;1.50;;;9.80;99.90;;;;;;5050832;28;20296;-87
2021/10/24 12:09:42;;;;;;;0.60;0.60;;;9.80;99.90;;;;;;5033230;28;20569;-89
2021/10/24 12:12:13;;;;;;;1.25;1.08;;;9.70;99.90;;;;;;5034429;28;20194;-88
2021/10/24 12:14:56;;;;;;;0.68;0.68;;;9.70;99.90;;;;;;5032581;28;20689;-88
2021/10/24 12:17:30;;;;;;;0.70;0.70;;;9.60;99.90;;;;;;5049057;28;20346;-88
2021/10/24 12:20:18;;;;;;;0.70;0.70;;;9.60;99.90;;;;;;5049453;28;20258;-88
2021/10/24 12:22:50;;;;;;;1.27;0.82;;;9.60;99.90;;;;;;5050688;28;20288;-89
2021/10/24 12:25:20;;;;;;;0.60;0.60;;;9.60;99.90;;;;;;5049678;28;20202;-88
2021/10/24 12:28:17;;;;;;;0.63;0.63;;;9.60;99.90;;;;;;5049726;28;20224;-89
2021/10/24 12:30:58;;;;;;;0.80;0.80;;;9.60;99.90;;;;;;5049320;28;20247;-89
2021/10/24 12:33:31;;;;;;;0.70;0.70;;;9.70;99.90;;;;;;5050454;28;20201;-88
2021/10/24 12:35:59;;;;;;;0.80;0.80;;;9.70;99.90;;;;;;5049079;28;20247;-88
2021/10/24 12:38:47;;;;;;;0.65;0.65;;;9.80;99.90;;;;;;5048954;28;20220;-88
2021/10/24 12:41:36;;;;;;;0.77;0.77;;;9.90;99.90;;;;;;5049087;28;20572;-88
2021/10/24 12:44:04;;;;;;;0.65;0.65;;;10.00;99.90;;;;;;5050861;28;20289;-88
2021/10/24 12:46:35;;;;;;;0.80;0.80;;;10.10;99.90;;;;;;5050186;28;20557;-88
2021/10/24 12:49:13;;;;;;;0.60;0.60;;;10.20;99.90;;;;;;5049519;28;20209;-88
2021/10/24 12:51:40;;;;;;;1.42;1.13;;;10.30;99.90;;;;;;5051520;28;20566;-88
2021/10/24 12:54:08;;;;;;;0.65;0.65;;;10.30;99.90;;;;;;5050243;28;20292;-88
2021/10/24 12:56:34;;;;;;;0.57;0.57;;;10.30;99.90;;;;;;5049839;28;20212;-89
2021/10/24 12:59:00;;;;;;;0.68;0.68;;;10.20;99.90;;;;;;5050642;28;20201;-89
2021/10/24 13:01:29;;;;;;;0.63;0.63;;;10.30;99.90;;;;;;5049813;28;20249;-89
2021/10/24 13:03:56;;;;;;;0.68;0.68;;;10.40;99.90;;;;;;5052065;28;20255;-89
2021/10/24 13:06:22;;;;;;;0.82;0.82;;;10.40;99.90;;;;;;5054018;28;20202;-87